Valledupar, Valledupar Alfonso Lopez Pumarejo Airport (SKVP)

NameValledupar Alfonso Lopez Pumarejo Airport
CityValledupar
CountryColombia
ICAOSKVP
IATAVUP
Altitude139 m
CoordinatesGoogle Map
Live Air TrafficLiveATC.net
METARSKVP 251700Z 07008KT 350V130 9999 FEW020 35/18 A2989
2020-04-25 17:00:00 Wind: East-Northeast (70°) 4.12 m/s - Visibility: > 10000 m - Temperature: 35 °C - Dew point: 18 °C - Humidity: 36.5% - Pressure: 1012.19 hPa

Sorry, no flights used the airport in this database.